createdAt,value
2018-09-06T00:01:21.806Z,29.93
2018-09-06T00:03:25.350Z,29.67
2018-09-06T00:05:29.136Z,29.70
2018-09-06T00:07:33.208Z,30.03
2018-09-06T00:09:36.828Z,28.67
2018-09-06T00:11:40.515Z,28.87
2018-09-06T00:13:44.092Z,29.17
2018-09-06T00:15:47.974Z,31.43
2018-09-06T00:17:51.570Z,30.73
2018-09-06T00:19:55.358Z,28.57
2018-09-06T00:21:58.900Z,28.87
2018-09-06T00:24:02.517Z,26.97
2018-09-06T00:26:06.223Z,28.50
2018-09-06T00:28:09.978Z,26.27
2018-09-06T00:30:13.790Z,26.67
2018-09-06T00:32:17.356Z,28.33
2018-09-06T00:34:22.067Z,26.63
2018-09-06T00:36:25.679Z,27.90
2018-09-06T00:38:29.260Z,28.80
2018-09-06T00:40:32.881Z,28.93
2018-09-06T00:42:36.673Z,28.43
2018-09-06T00:44:40.305Z,29.90
2018-09-06T00:46:43.989Z,30.27
2018-09-06T00:48:47.718Z,29.40
2018-09-06T00:50:51.485Z,29.00
2018-09-06T00:52:55.055Z,28.87
2018-09-06T00:54:58.830Z,28.40
2018-09-06T00:57:02.496Z,29.90
2018-09-06T00:59:06.136Z,29.13
2018-09-06T01:01:09.986Z,30.00
2018-09-06T01:03:13.800Z,30.67
2018-09-06T01:05:17.442Z,29.73
2018-09-06T01:07:20.954Z,29.27
2018-09-06T01:09:24.500Z,28.70
2018-09-06T01:11:28.092Z,29.33
2018-09-06T01:13:31.797Z,28.30
2018-09-06T01:15:35.338Z,28.50
2018-09-06T01:17:39.047Z,27.93
2018-09-06T01:19:42.925Z,28.00
2018-09-06T01:21:46.481Z,26.43
2018-09-06T01:23:50.096Z,27.53
2018-09-06T01:25:53.634Z,27.53
2018-09-06T01:27:57.470Z,29.37
2018-09-06T01:30:01.173Z,27.83
2018-09-06T01:32:04.683Z,32.93
2018-09-06T01:34:08.232Z,34.07
2018-09-06T01:36:16.906Z,32.53
2018-09-06T01:38:20.454Z,31.17
2018-09-06T01:40:24.033Z,31.67
2018-09-06T01:42:28.238Z,31.63
2018-09-06T01:44:31.812Z,33.13
2018-09-06T01:46:36.444Z,34.00
2018-09-06T01:48:40.082Z,32.63
2018-09-06T01:50:43.630Z,31.47
2018-09-06T01:52:47.239Z,31.83
2018-09-06T01:54:50.831Z,30.93
2018-09-06T01:56:54.367Z,31.73
2018-09-06T01:58:58.056Z,29.60
2018-09-06T02:01:01.639Z,29.80
2018-09-06T02:03:05.210Z,30.93
2018-09-06T02:05:08.938Z,29.30
2018-09-06T02:07:12.703Z,28.47
2018-09-06T02:09:16.264Z,29.80
2018-09-06T02:11:20.034Z,32.70
2018-09-06T02:13:23.691Z,30.73
2018-09-06T02:15:27.632Z,31.40
2018-09-06T02:17:31.165Z,29.80
2018-09-06T02:19:34.744Z,30.73
2018-09-06T02:21:38.376Z,33.23
2018-09-06T02:23:41.928Z,31.03
2018-09-06T02:25:45.437Z,30.23
2018-09-06T02:27:49.150Z,31.23
2018-09-06T02:29:52.939Z,30.53
2018-09-06T02:31:56.594Z,30.27
2018-09-06T02:34:00.135Z,30.40
2018-09-06T02:36:03.771Z,30.17
2018-09-06T02:38:07.478Z,31.00
2018-09-06T02:40:15.210Z,32.00
2018-09-06T02:42:19.183Z,32.50
2018-09-06T02:44:29.686Z,34.53
2018-09-06T02:46:33.229Z,32.93
2018-09-06T02:48:38.935Z,31.53
2018-09-06T02:50:47.737Z,32.57
2018-09-06T02:52:52.022Z,30.97
2018-09-06T02:54:55.561Z,31.37
2018-09-06T02:56:59.091Z,30.43
2018-09-06T02:59:02.615Z,32.67
2018-09-06T03:01:06.383Z,30.97
2018-09-06T03:03:10.114Z,33.17
2018-09-06T03:05:13.638Z,31.97
2018-09-06T03:07:17.177Z,32.03
2018-09-06T03:09:22.193Z,30.57
2018-09-06T03:11:29.938Z,30.83
2018-09-06T03:13:33.711Z,29.77
2018-09-06T03:15:37.543Z,31.60
2018-09-06T03:17:41.187Z,31.77
2018-09-06T03:19:44.835Z,31.43
2018-09-06T03:21:48.399Z,29.77
2018-09-06T03:23:52.074Z,28.57
2018-09-06T03:25:55.613Z,29.07
2018-09-06T03:27:59.413Z,29.23
2018-09-06T03:30:03.000Z,31.50
2018-09-06T03:32:06.620Z,30.73
2018-09-06T03:34:10.145Z,31.57
2018-09-06T03:36:14.277Z,29.80
2018-09-06T03:38:17.817Z,30.63
2018-09-06T03:40:21.523Z,30.33
2018-09-06T03:42:25.113Z,30.07
2018-09-06T03:44:28.808Z,30.77
2018-09-06T03:46:32.448Z,31.87
2018-09-06T03:48:36.097Z,30.17
2018-09-06T03:50:39.665Z,29.77
2018-09-06T03:52:43.333Z,31.47
2018-09-06T03:54:46.828Z,32.40
2018-09-06T03:56:50.443Z,33.27
2018-09-06T03:58:54.179Z,31.00
2018-09-06T04:00:57.715Z,32.00
2018-09-06T04:03:01.235Z,32.07
2018-09-06T04:05:04.912Z,31.27
2018-09-06T04:07:08.815Z,31.23
2018-09-06T04:09:12.625Z,31.00
2018-09-06T04:11:16.212Z,31.60
2018-09-06T04:13:19.914Z,32.53
2018-09-06T04:15:23.390Z,29.70
2018-09-06T04:17:26.940Z,31.40
2018-09-06T04:19:30.634Z,30.07
2018-09-06T04:21:34.118Z,30.30
2018-09-06T04:23:37.700Z,28.90
2018-09-06T04:25:41.532Z,29.67
2018-09-06T04:27:45.282Z,31.60
2018-09-06T04:29:48.747Z,29.73
2018-09-06T04:31:52.251Z,30.13
2018-09-06T04:33:55.804Z,30.17
2018-09-06T04:35:59.442Z,30.20
2018-09-06T04:38:02.940Z,31.00
2018-09-06T04:40:06.548Z,30.47
2018-09-06T04:42:10.170Z,31.93
2018-09-06T04:44:13.672Z,31.07
2018-09-06T04:46:17.307Z,31.10
2018-09-06T04:48:20.987Z,32.80
2018-09-06T04:50:24.593Z,32.10
2018-09-06T04:52:28.159Z,30.80
2018-09-06T04:54:31.740Z,31.23
2018-09-06T04:56:35.259Z,30.87
2018-09-06T04:58:38.825Z,30.50
2018-09-06T05:00:42.302Z,33.53
2018-09-06T05:02:45.861Z,32.03
2018-09-06T05:04:49.626Z,30.30
2018-09-06T05:06:53.121Z,29.67
2018-09-06T05:08:56.767Z,29.50
2018-09-06T05:11:00.496Z,31.13
2018-09-06T05:13:04.049Z,31.90
2018-09-06T05:15:07.643Z,32.43
2018-09-06T05:17:11.196Z,30.50
2018-09-06T05:19:14.743Z,33.17
2018-09-06T05:21:18.296Z,31.97
2018-09-06T05:23:21.860Z,30.83
2018-09-06T05:25:25.355Z,33.63
2018-09-06T05:27:28.854Z,35.17
2018-09-06T05:29:32.535Z,34.80
2018-09-06T05:31:36.005Z,33.60
2018-09-06T05:33:39.576Z,32.60
2018-09-06T05:35:43.169Z,34.13
2018-09-06T05:37:46.902Z,32.53
2018-09-06T05:39:50.645Z,31.73
2018-09-06T05:41:54.149Z,32.27
2018-09-06T05:43:57.647Z,31.47
2018-09-06T05:46:01.363Z,32.13
2018-09-06T05:48:04.913Z,30.70
2018-09-06T05:50:08.519Z,32.10
2018-09-06T05:52:12.045Z,33.20
2018-09-06T05:54:15.574Z,29.90
2018-09-06T05:56:19.108Z,32.03
2018-09-06T05:58:22.638Z,31.30
2018-09-06T06:00:31.385Z,30.20
2018-09-06T06:02:35.079Z,30.83
2018-09-06T06:04:38.627Z,31.77
2018-09-06T06:06:42.264Z,33.00
2018-09-06T06:08:47.568Z,33.73
2018-09-06T06:10:51.170Z,33.13
2018-09-06T06:12:55.012Z,35.73
2018-09-06T06:14:58.556Z,34.50
2018-09-06T06:17:02.070Z,34.80
2018-09-06T06:19:05.575Z,34.10
2018-09-06T06:21:09.323Z,33.83
2018-09-06T06:23:12.893Z,34.17
2018-09-06T06:25:16.475Z,36.03
2018-09-06T06:27:20.109Z,34.90
2018-09-06T06:29:23.745Z,35.67
2018-09-06T06:31:27.341Z,35.50
2018-09-06T06:33:30.868Z,36.57
2018-09-06T06:35:34.408Z,35.23
2018-09-06T06:37:37.948Z,34.67
2018-09-06T06:39:41.505Z,39.77
2018-09-06T06:41:45.186Z,38.80
2018-09-06T06:43:48.872Z,39.80
2018-09-06T06:45:52.463Z,40.07
2018-09-06T06:47:55.981Z,39.20
2018-09-06T06:49:59.544Z,39.23
2018-09-06T06:52:03.152Z,37.17
2018-09-06T06:54:06.990Z,41.00
2018-09-06T06:56:10.499Z,41.33
2018-09-06T06:58:14.014Z,44.40
2018-09-06T07:00:18.381Z,43.03
2018-09-06T07:02:21.916Z,41.50
2018-09-06T07:04:25.522Z,47.60
2018-09-06T07:06:28.938Z,47.50
2018-09-06T07:08:32.711Z,47.97
2018-09-06T07:10:36.323Z,51.13
2018-09-06T07:12:39.864Z,52.37
2018-09-06T07:14:43.476Z,53.20
2018-09-06T07:16:47.211Z,61.17
2018-09-06T07:18:50.784Z,60.63
2018-09-06T07:20:54.516Z,64.33
2018-09-06T07:22:58.100Z,63.63
2018-09-06T07:25:02.172Z,55.40
2018-09-06T07:27:05.783Z,57.40
2018-09-06T07:29:09.427Z,56.17
2018-09-06T07:31:12.960Z,55.63
2018-09-06T07:33:16.491Z,55.63
2018-09-06T07:35:20.109Z,53.63
2018-09-06T07:37:24.146Z,52.87
2018-09-06T07:39:27.760Z,50.73
2018-09-06T07:41:31.333Z,53.03
2018-09-06T07:43:35.043Z,53.13
2018-09-06T07:45:38.639Z,52.40
2018-09-06T07:47:42.253Z,54.97
2018-09-06T07:49:45.852Z,52.57
2018-09-06T07:51:49.508Z,56.23
2018-09-06T07:53:53.085Z,53.57
2018-09-06T07:55:56.627Z,53.37
2018-09-06T07:58:00.224Z,52.83
2018-09-06T08:00:03.950Z,55.70
2018-09-06T08:02:07.513Z,53.33
2018-09-06T08:04:11.119Z,54.40
2018-09-06T08:06:14.702Z,59.83
2018-09-06T08:08:18.616Z,57.27
2018-09-06T08:10:22.275Z,59.20
2018-09-06T08:12:25.799Z,58.27
2018-09-06T08:14:29.366Z,56.30
2018-09-06T08:16:33.135Z,54.73
2018-09-06T08:18:36.763Z,58.47
2018-09-06T08:20:40.369Z,59.23
2018-09-06T08:22:44.124Z,60.13
2018-09-06T08:24:47.699Z,55.37
2018-09-06T08:26:51.238Z,57.80
2018-09-06T08:28:54.769Z,62.77
2018-09-06T08:30:58.563Z,60.70
2018-09-06T08:33:01.940Z,61.37
2018-09-06T08:35:05.718Z,61.47
2018-09-06T08:37:09.308Z,54.00
2018-09-06T08:39:12.952Z,59.83
2018-09-06T08:41:16.504Z,59.43
2018-09-06T08:43:20.032Z,61.40
2018-09-06T08:45:23.881Z,56.87
2018-09-06T08:47:27.550Z,57.20
2018-09-06T08:49:31.122Z,55.63
2018-09-06T08:51:34.644Z,56.20
2018-09-06T08:53:38.301Z,53.50
2018-09-06T08:55:41.856Z,56.30
2018-09-06T08:57:45.363Z,54.43
2018-09-06T08:59:48.880Z,58.10
2018-09-06T09:01:52.498Z,56.63
2018-09-06T09:03:56.473Z,56.23
2018-09-06T09:06:00.373Z,57.17
2018-09-06T09:08:04.140Z,55.10
2018-09-06T09:10:07.786Z,55.37
2018-09-06T09:12:11.309Z,57.03
2018-09-06T09:14:14.832Z,56.03
2018-09-06T09:16:18.407Z,55.37
2018-09-06T09:18:22.251Z,57.53
2018-09-06T09:20:25.816Z,55.90
2018-09-06T09:22:29.341Z,54.83
2018-09-06T09:24:33.140Z,55.03
2018-09-06T09:26:37.011Z,59.10
2018-09-06T09:28:40.605Z,56.47
2018-09-06T09:30:44.229Z,56.77
2018-09-06T09:32:47.715Z,54.40
2018-09-06T09:34:51.241Z,53.13
2018-09-06T09:36:54.871Z,55.03
2018-09-06T09:38:58.563Z,54.63
2018-09-06T09:41:02.250Z,54.70
2018-09-06T09:43:06.223Z,52.47
2018-09-06T09:45:09.869Z,50.63
2018-09-06T09:49:16.225Z,48.67
2018-09-06T09:51:19.754Z,53.87
2018-09-06T09:53:23.256Z,49.97
2018-09-06T09:55:26.771Z,48.47
2018-09-06T09:57:30.409Z,45.53
2018-09-06T09:59:34.049Z,42.37
2018-09-06T10:01:47.743Z,46.77
2018-09-06T10:03:56.795Z,45.00
2018-09-06T10:06:05.610Z,44.13
2018-09-06T10:08:14.441Z,43.97
2018-09-06T10:10:17.986Z,42.70
2018-09-06T10:12:21.584Z,44.20
2018-09-06T10:14:25.157Z,45.80
2018-09-06T10:16:28.727Z,41.50
2018-09-06T10:18:32.408Z,41.73
2018-09-06T10:20:36.039Z,37.67
2018-09-06T10:22:39.683Z,37.17
2018-09-06T10:24:43.262Z,35.20
2018-09-06T10:26:46.859Z,32.27
2018-09-06T10:28:50.346Z,34.70
2018-09-06T10:30:53.933Z,35.80
2018-09-06T10:32:57.798Z,28.70
2018-09-06T10:35:01.463Z,34.33
2018-09-06T10:37:05.075Z,33.53
2018-09-06T10:39:09.827Z,31.87
2018-09-06T10:41:13.451Z,32.77
2018-09-06T10:43:16.984Z,31.83
2018-09-06T10:45:20.479Z,30.33
2018-09-06T10:47:24.051Z,29.07
2018-09-06T10:49:27.588Z,27.70
2018-09-06T10:51:31.253Z,26.60
2018-09-06T10:53:34.834Z,24.23
2018-09-06T10:55:38.315Z,23.37
2018-09-06T10:57:48.471Z,21.90
2018-09-06T10:59:52.074Z,22.20
2018-09-06T11:01:55.635Z,23.00
2018-09-06T11:03:59.609Z,21.10
2018-09-06T11:06:03.327Z,21.63
2018-09-06T11:08:07.056Z,18.67
2018-09-06T11:10:10.708Z,16.27
2018-09-06T11:12:14.219Z,16.60
2018-09-06T11:14:17.726Z,15.63
2018-09-06T11:16:21.806Z,15.73
2018-09-06T11:18:25.333Z,16.40
2018-09-06T11:20:28.893Z,15.37
2018-09-06T11:22:32.695Z,15.53
2018-09-06T11:24:36.068Z,16.37
2018-09-06T11:26:39.568Z,16.90
2018-09-06T11:28:43.097Z,14.87
2018-09-06T11:30:46.643Z,18.53
2018-09-06T11:32:50.225Z,16.43
2018-09-06T11:34:53.788Z,17.37
2018-09-06T11:36:57.577Z,17.37
2018-09-06T11:39:01.120Z,17.53
2018-09-06T11:41:04.624Z,16.93
2018-09-06T11:43:08.287Z,16.77
2018-09-06T11:45:11.803Z,16.13
2018-09-06T11:47:15.405Z,15.43
2018-09-06T11:49:18.875Z,16.67
2018-09-06T11:51:22.555Z,20.83
2018-09-06T11:53:26.181Z,17.07
2018-09-06T11:55:29.806Z,17.50
2018-09-06T11:57:33.355Z,16.87
2018-09-06T11:59:36.928Z,15.23
2018-09-06T12:01:40.680Z,14.87
2018-09-06T12:03:44.384Z,15.00
2018-09-06T12:05:47.920Z,14.10
2018-09-06T12:07:51.544Z,14.00
2018-09-06T12:09:55.171Z,12.95
2018-09-06T12:11:58.711Z,12.90
2018-09-06T12:14:02.295Z,13.77
2018-09-06T12:16:05.837Z,13.93
2018-09-06T12:18:09.354Z,13.33
2018-09-06T12:20:12.978Z,14.30
2018-09-06T12:22:16.484Z,16.13
2018-09-06T12:24:20.335Z,13.43
2018-09-06T12:26:24.001Z,13.40
2018-09-06T12:28:27.544Z,12.33
2018-09-06T12:30:31.316Z,13.83
2018-09-06T12:32:34.949Z,12.60
2018-09-06T12:34:38.532Z,15.77
2018-09-06T12:36:42.140Z,13.70
2018-09-06T12:38:45.761Z,14.73
2018-09-06T12:40:49.373Z,15.53
2018-09-06T12:42:52.871Z,13.20
2018-09-06T12:44:56.479Z,12.60
2018-09-06T12:46:59.991Z,13.93
2018-09-06T12:49:03.527Z,15.57
2018-09-06T12:51:07.092Z,14.17
2018-09-06T12:53:10.703Z,14.68
2018-09-06T12:55:14.420Z,14.00
2018-09-06T12:57:18.203Z,14.40
2018-09-06T12:59:22.203Z,14.43
2018-09-06T13:01:25.752Z,13.30
2018-09-06T13:03:29.348Z,13.77
2018-09-06T13:05:32.858Z,13.97
2018-09-06T13:07:36.409Z,12.93
2018-09-06T13:09:39.924Z,14.17
2018-09-06T13:11:43.612Z,14.10
2018-09-06T13:13:47.207Z,13.57
2018-09-06T13:15:50.929Z,14.90
2018-09-06T13:17:54.492Z,14.23
2018-09-06T13:19:58.444Z,15.53
2018-09-06T13:22:01.946Z,15.20
2018-09-06T13:24:05.479Z,14.77
2018-09-06T13:26:09.291Z,15.83
2018-09-06T13:28:12.957Z,15.43
2018-09-06T13:30:16.533Z,15.30
2018-09-06T13:32:20.099Z,14.83
2018-09-06T13:34:23.891Z,16.03
2018-09-06T13:36:27.480Z,14.20
2018-09-06T13:38:31.056Z,15.00
2018-09-06T13:40:34.576Z,14.70
2018-09-06T13:42:38.113Z,13.97
2018-09-06T13:44:41.663Z,14.27
2018-09-06T13:46:45.314Z,14.27
2018-09-06T13:48:48.824Z,13.10
2018-09-06T13:50:52.329Z,12.83
2018-09-06T13:52:55.848Z,11.93
2018-09-06T13:54:59.443Z,12.30
2018-09-06T13:57:03.106Z,11.67
2018-09-06T13:59:06.727Z,11.63
2018-09-06T14:01:10.417Z,11.50
2018-09-06T14:03:13.936Z,12.35
2018-09-06T14:05:17.464Z,11.47
2018-09-06T14:07:21.083Z,11.40
2018-09-06T14:09:24.884Z,12.43
2018-09-06T14:11:28.389Z,12.00
2018-09-06T14:13:31.903Z,12.58
2018-09-06T14:15:35.753Z,11.57
2018-09-06T14:17:39.328Z,13.30
2018-09-06T14:19:42.849Z,11.60
2018-09-06T14:21:46.498Z,14.17
2018-09-06T14:23:50.116Z,12.63
2018-09-06T14:25:53.764Z,11.13
2018-09-06T14:27:57.575Z,12.60
2018-09-06T14:30:01.118Z,12.30
2018-09-06T14:32:04.675Z,11.93
2018-09-06T14:34:08.207Z,12.65
2018-09-06T14:36:11.778Z,11.43
2018-09-06T14:38:15.465Z,13.03
2018-09-06T14:40:18.947Z,11.53
2018-09-06T14:42:22.467Z,12.10
2018-09-06T14:44:26.030Z,11.60
2018-09-06T14:46:29.564Z,12.20
2018-09-06T14:48:33.248Z,12.57
2018-09-06T14:50:36.806Z,11.87
2018-09-06T14:52:40.355Z,11.80
2018-09-06T14:54:43.862Z,11.87
2018-09-06T14:56:47.384Z,11.93
2018-09-06T14:58:51.051Z,11.93
2018-09-06T15:00:54.599Z,11.33
2018-09-06T15:02:58.141Z,11.13
2018-09-06T15:05:01.695Z,10.30
2018-09-06T15:07:05.935Z,11.00
2018-09-06T15:09:09.828Z,10.77
2018-09-06T15:11:13.380Z,10.80
2018-09-06T15:13:17.128Z,11.00
2018-09-06T15:15:20.686Z,10.63
2018-09-06T15:17:24.365Z,10.67
2018-09-06T15:19:28.011Z,9.65
2018-09-06T15:21:31.700Z,9.73
2018-09-06T15:23:35.172Z,10.40
2018-09-06T15:25:38.831Z,9.37
2018-09-06T15:27:42.326Z,8.90
2018-09-06T15:29:45.933Z,9.87
2018-09-06T15:31:49.472Z,8.90
2018-09-06T15:33:53.201Z,9.40
2018-09-06T15:35:56.763Z,9.18
2018-09-06T15:38:00.625Z,9.87
2018-09-06T15:40:04.195Z,10.60
2018-09-06T15:42:07.844Z,9.13
2018-09-06T15:44:11.405Z,9.05
2018-09-06T15:46:14.955Z,9.57
2018-09-06T15:48:18.652Z,9.18
2018-09-06T15:50:22.328Z,9.50
2018-09-06T15:52:25.847Z,9.03
2018-09-06T15:54:29.335Z,9.13
2018-09-06T15:56:32.887Z,9.35
2018-09-06T15:58:36.507Z,9.38
2018-09-06T16:00:40.125Z,9.47
2018-09-06T16:02:43.647Z,8.98
2018-09-06T16:04:47.346Z,10.25
2018-09-06T16:06:50.952Z,9.78
2018-09-06T16:08:54.455Z,9.60
2018-09-06T16:10:58.095Z,9.10
2018-09-06T16:13:01.617Z,10.00
2018-09-06T16:15:05.272Z,9.70
2018-09-06T16:17:08.951Z,8.90
2018-09-06T16:19:12.457Z,9.05
2018-09-06T16:21:15.980Z,9.08
2018-09-06T16:23:19.668Z,9.90
2018-09-06T16:25:24.157Z,9.90
2018-09-06T16:27:27.676Z,9.97
2018-09-06T16:29:31.197Z,9.10
2018-09-06T16:31:34.828Z,9.90
2018-09-06T16:33:38.381Z,9.73
2018-09-06T16:35:41.924Z,9.53
2018-09-06T16:37:45.462Z,9.53
2018-09-06T16:39:49.000Z,9.20
2018-09-06T16:41:52.531Z,9.10
2018-09-06T16:43:56.110Z,8.85
2018-09-06T16:45:59.674Z,9.40
2018-09-06T16:48:03.398Z,8.63
2018-09-06T16:50:06.928Z,8.63
2018-09-06T16:52:10.549Z,8.67
2018-09-06T16:54:14.077Z,9.77
2018-09-06T16:56:17.614Z,9.30
2018-09-06T16:58:21.384Z,9.53
2018-09-06T17:00:24.895Z,9.48
2018-09-06T17:02:28.428Z,9.50
2018-09-06T17:04:31.964Z,9.10
2018-09-06T17:06:35.479Z,8.80
2018-09-06T17:08:39.193Z,9.53
2018-09-06T17:10:42.740Z,8.90
2018-09-06T17:12:46.486Z,9.37
2018-09-06T17:14:50.223Z,9.43
2018-09-06T17:16:53.780Z,9.17
2018-09-06T17:18:57.371Z,9.00
2018-09-06T17:21:01.130Z,9.70
2018-09-06T17:23:04.758Z,9.20
2018-09-06T17:25:08.329Z,9.80
2018-09-06T17:27:11.827Z,9.60
2018-09-06T17:29:15.374Z,9.70
2018-09-06T17:31:19.116Z,9.70
2018-09-06T17:33:22.815Z,8.50
2018-09-06T17:35:26.364Z,9.37
2018-09-06T17:37:29.940Z,9.27
2018-09-06T17:39:33.543Z,9.27
2018-09-06T17:41:37.110Z,9.30
2018-09-06T17:43:40.674Z,9.17
2018-09-06T17:45:44.286Z,9.30
2018-09-06T17:47:47.943Z,9.80
2018-09-06T17:49:51.709Z,9.53
2018-09-06T17:51:55.238Z,10.07
2018-09-06T17:53:58.944Z,9.97
2018-09-06T17:56:02.473Z,9.67
2018-09-06T17:58:06.244Z,9.33
2018-09-06T18:00:09.840Z,9.90
2018-09-06T18:02:13.373Z,9.60
2018-09-06T18:04:17.027Z,9.87
2018-09-06T18:06:20.555Z,9.53
2018-09-06T18:08:24.104Z,9.37
2018-09-06T18:10:27.639Z,9.87
2018-09-06T18:12:31.196Z,9.60
2018-09-06T18:14:34.903Z,9.73
2018-09-06T18:16:38.630Z,10.20
2018-09-06T18:18:42.394Z,8.80
2018-09-06T18:20:46.022Z,9.47
2018-09-06T18:22:49.644Z,8.83
2018-09-06T18:24:53.395Z,8.90
2018-09-06T18:26:57.006Z,8.87
2018-09-06T18:29:00.622Z,9.97
2018-09-06T18:31:04.248Z,9.70
2018-09-06T18:33:07.576Z,9.53
2018-09-06T18:35:11.394Z,8.63
2018-09-06T18:37:15.022Z,9.00
2018-09-06T18:39:18.568Z,9.13
2018-09-06T18:41:22.073Z,9.90
2018-09-06T18:43:25.633Z,9.57
2018-09-06T18:45:29.379Z,9.27
2018-09-06T18:47:33.175Z,10.47
2018-09-06T18:49:37.046Z,9.67
2018-09-06T18:51:40.579Z,10.80
2018-09-06T18:53:44.213Z,10.67
2018-09-06T18:55:47.809Z,10.70
2018-09-06T18:57:51.487Z,10.53
2018-09-06T18:59:55.092Z,11.43
2018-09-06T19:01:58.719Z,12.93
2018-09-06T19:04:02.280Z,12.57
2018-09-06T19:06:06.064Z,11.70
2018-09-06T19:08:09.838Z,12.53
2018-09-06T19:10:13.487Z,12.37
2018-09-06T19:12:17.093Z,14.53
2018-09-06T19:14:20.660Z,13.47
2018-09-06T19:16:24.320Z,14.73
2018-09-06T19:18:27.915Z,16.83
2018-09-06T19:20:31.554Z,14.93
2018-09-06T19:22:35.090Z,14.77
2018-09-06T19:24:38.774Z,14.50
2018-09-06T19:26:42.500Z,14.07
2018-09-06T19:28:46.081Z,13.47
2018-09-06T19:30:49.697Z,14.77
2018-09-06T19:32:53.539Z,15.40
2018-09-06T19:34:57.340Z,15.03
2018-09-06T19:37:00.880Z,13.80
2018-09-06T19:39:08.623Z,13.50
2018-09-06T19:41:12.164Z,15.37
2018-09-06T19:43:15.744Z,14.17
2018-09-06T19:45:19.404Z,13.17
2018-09-06T19:47:23.259Z,14.87
2018-09-06T19:49:26.864Z,15.00
2018-09-06T19:51:30.450Z,15.17
2018-09-06T19:53:33.976Z,15.50
2018-09-06T19:55:37.560Z,14.83
2018-09-06T19:57:41.192Z,15.33
2018-09-06T19:59:44.891Z,15.23
2018-09-06T20:01:48.734Z,16.77
2018-09-06T20:03:52.421Z,15.97
2018-09-06T20:05:56.094Z,14.30
2018-09-06T20:07:59.679Z,15.17
2018-09-06T20:10:03.395Z,14.20
2018-09-06T20:12:06.980Z,15.23
2018-09-06T20:14:10.567Z,13.40
2018-09-06T20:16:14.311Z,13.53
2018-09-06T20:18:17.939Z,15.33
2018-09-06T20:20:21.611Z,14.00
2018-09-06T20:22:25.227Z,13.10
2018-09-06T20:24:28.886Z,12.90
2018-09-06T20:26:32.657Z,12.07
2018-09-06T20:28:36.283Z,13.73
2018-09-06T20:30:40.967Z,12.53
2018-09-06T20:32:49.416Z,11.70
2018-09-06T20:34:53.079Z,12.93
2018-09-06T20:36:56.696Z,13.50
2018-09-06T20:39:00.304Z,12.30
2018-09-06T20:41:03.907Z,12.30
2018-09-06T20:43:07.525Z,13.03
2018-09-06T20:45:11.094Z,13.40
2018-09-06T20:47:14.607Z,13.27
2018-09-06T20:49:18.123Z,13.10
2018-09-06T20:51:21.688Z,12.33
2018-09-06T20:53:25.260Z,13.10
2018-09-06T20:55:28.831Z,11.97
2018-09-06T20:57:32.600Z,12.10
2018-09-06T20:59:36.179Z,12.53
2018-09-06T21:01:39.892Z,11.67
2018-09-06T21:03:43.435Z,12.50
2018-09-06T21:05:47.087Z,12.53
2018-09-06T21:07:50.693Z,12.73
2018-09-06T21:09:54.264Z,11.93
2018-09-06T21:11:57.805Z,12.93
2018-09-06T21:14:01.498Z,13.00
2018-09-06T21:16:05.160Z,11.97
2018-09-06T21:18:08.724Z,12.83
2018-09-06T21:20:12.281Z,12.60
2018-09-06T21:22:15.872Z,12.33
2018-09-06T21:24:20.032Z,12.17
2018-09-06T21:26:23.678Z,12.13
2018-09-06T21:28:27.180Z,12.03
2018-09-06T21:30:30.730Z,12.00
2018-09-06T21:32:34.293Z,12.90
2018-09-06T21:34:43.250Z,11.80
2018-09-06T21:36:49.872Z,12.67
2018-09-06T21:38:54.703Z,11.37
2018-09-06T21:41:01.902Z,11.57
2018-09-06T21:43:09.066Z,13.07
2018-09-06T21:45:14.548Z,12.50
2018-09-06T21:47:20.304Z,13.07
2018-09-06T21:49:26.114Z,12.63
2018-09-06T21:51:32.309Z,13.17
2018-09-06T21:53:38.357Z,14.10
2018-09-06T21:55:46.153Z,13.50
2018-09-06T21:57:50.005Z,13.80
2018-09-06T21:59:57.018Z,13.37
2018-09-06T22:02:07.544Z,13.80
2018-09-06T22:04:11.616Z,13.37
2018-09-06T22:06:19.477Z,12.93
2018-09-06T22:08:25.236Z,13.90
2018-09-06T22:10:30.076Z,13.97
2018-09-06T22:12:33.731Z,14.90
2018-09-06T22:14:37.294Z,17.50
2018-09-06T22:16:40.851Z,16.43
2018-09-06T22:18:44.623Z,15.73
2018-09-06T22:20:48.227Z,17.80
2018-09-06T22:22:51.771Z,17.23
2018-09-06T22:24:55.309Z,18.17
2018-09-06T22:26:58.973Z,19.20
2018-09-06T22:29:02.716Z,20.17
2018-09-06T22:31:06.501Z,19.80
2018-09-06T22:33:10.136Z,20.83
2018-09-06T22:35:13.689Z,21.80
2018-09-06T22:37:17.218Z,20.10
2018-09-06T22:39:20.802Z,19.67
2018-09-06T22:41:24.324Z,21.80
2018-09-06T22:43:27.910Z,19.93
2018-09-06T22:45:31.503Z,19.03
2018-09-06T22:47:35.039Z,20.43
2018-09-06T22:49:38.574Z,21.00
2018-09-06T22:51:42.098Z,20.23
2018-09-06T22:53:45.649Z,20.13
2018-09-06T22:55:49.396Z,21.37
2018-09-06T22:57:52.921Z,20.77
2018-09-06T22:59:56.475Z,21.20
2018-09-06T23:02:00.052Z,20.30
2018-09-06T23:04:03.696Z,20.17
2018-09-06T23:06:07.757Z,20.47
2018-09-06T23:08:11.368Z,21.53
2018-09-06T23:10:15.018Z,21.50
2018-09-06T23:12:18.574Z,21.37
2018-09-06T23:14:22.271Z,21.77
2018-09-06T23:16:26.370Z,21.83
2018-09-06T23:18:29.954Z,22.07
2018-09-06T23:20:33.468Z,23.73
2018-09-06T23:22:38.852Z,22.47
2018-09-06T23:24:42.387Z,23.17
2018-09-06T23:26:46.062Z,23.70
2018-09-06T23:28:49.639Z,22.00
2018-09-06T23:30:53.310Z,22.43
2018-09-06T23:32:56.829Z,23.57
2018-09-06T23:35:00.537Z,25.83
2018-09-06T23:37:05.096Z,25.00
2018-09-06T23:39:08.656Z,25.40
2018-09-06T23:41:12.403Z,23.87
2018-09-06T23:43:16.058Z,25.93
2018-09-06T23:45:19.613Z,26.53
2018-09-06T23:47:23.502Z,25.73
2018-09-06T23:49:27.334Z,23.83
2018-09-06T23:51:30.879Z,23.43
2018-09-06T23:53:34.479Z,24.27
2018-09-06T23:55:38.041Z,23.70
2018-09-06T23:57:41.799Z,24.23
2018-09-06T23:59:45.329Z,23.57
